createdAt,value
2023-02-06T00:00:51.168Z,14.20
2023-02-06T00:03:18.284Z,15.75
2023-02-06T00:05:53.264Z,17.58
2023-02-06T00:08:20.241Z,17.45
2023-02-06T00:10:46.970Z,18.75
2023-02-06T00:13:13.704Z,14.50
2023-02-06T00:15:40.480Z,18.88
2023-02-06T00:18:07.213Z,18.00
2023-02-06T00:20:34.000Z,16.25
2023-02-06T00:23:00.725Z,19.35
2023-02-06T00:25:27.415Z,17.63
2023-02-06T00:27:54.196Z,19.33
2023-02-06T00:30:21.038Z,18.08
2023-02-06T00:32:47.897Z,18.73
2023-02-06T00:35:14.705Z,15.95
2023-02-06T00:37:41.501Z,19.63
2023-02-06T00:40:08.909Z,17.40
2023-02-06T00:42:35.616Z,17.65
2023-02-06T00:45:02.357Z,18.33
2023-02-06T00:47:30.308Z,17.15
2023-02-06T00:49:57.020Z,14.57
2023-02-06T00:52:23.756Z,15.82
2023-02-06T00:54:50.848Z,16.17
2023-02-06T00:57:17.669Z,16.58
2023-02-06T00:59:44.613Z,18.92
2023-02-06T01:02:11.466Z,15.95
2023-02-06T01:04:38.513Z,16.85
2023-02-06T01:07:06.539Z,13.65
2023-02-06T01:09:33.263Z,18.55
2023-02-06T01:12:00.047Z,16.98
2023-02-06T01:14:26.933Z,16.13
2023-02-06T01:16:53.732Z,16.63
2023-02-06T01:19:20.502Z,17.75
2023-02-06T01:21:47.306Z,17.50
2023-02-06T01:24:16.205Z,18.83
2023-02-06T01:26:43.944Z,16.17
2023-02-06T01:29:10.709Z,19.45
2023-02-06T01:31:37.502Z,18.27
2023-02-06T01:34:04.305Z,17.38
2023-02-06T01:36:31.096Z,19.70
2023-02-06T01:38:57.898Z,16.60
2023-02-06T01:41:24.898Z,17.92
2023-02-06T01:44:22.049Z,17.88
2023-02-06T01:46:53.573Z,20.20
2023-02-06T01:49:25.644Z,17.02
2023-02-06T01:52:04.740Z,17.30
2023-02-06T01:54:31.983Z,17.58
2023-02-06T01:57:02.495Z,20.92
2023-02-06T01:59:29.406Z,16.77
2023-02-06T02:01:56.695Z,16.27
2023-02-06T02:04:25.809Z,19.80
2023-02-06T02:07:21.519Z,20.80
2023-02-06T02:09:48.353Z,18.65
2023-02-06T02:12:15.398Z,16.38
2023-02-06T02:14:44.456Z,15.63
2023-02-06T02:17:26.623Z,18.33
2023-02-06T02:20:11.391Z,18.98
2023-02-06T02:22:53.139Z,16.75
2023-02-06T02:25:50.945Z,16.00
2023-02-06T02:28:39.738Z,16.50
2023-02-06T02:31:18.823Z,15.25
2023-02-06T02:33:56.172Z,18.40
2023-02-06T02:37:03.804Z,18.70
2023-02-06T02:40:01.798Z,17.05
2023-02-06T02:42:50.512Z,15.80
2023-02-06T02:45:42.665Z,17.13
2023-02-06T02:48:17.198Z,16.02
2023-02-06T02:50:44.405Z,18.60
2023-02-06T02:53:12.900Z,18.33
2023-02-06T02:55:39.713Z,19.10
2023-02-06T02:58:12.193Z,21.08
2023-02-06T03:00:55.552Z,15.75
2023-02-06T03:06:20.199Z,19.05
2023-02-06T03:09:10.340Z,17.58
2023-02-06T03:11:43.385Z,15.27
2023-02-06T03:14:21.458Z,19.92
2023-02-06T03:16:57.139Z,20.23
2023-02-06T03:19:40.336Z,21.83
2023-02-06T03:22:07.237Z,17.40
2023-02-06T03:24:39.140Z,18.25
2023-02-06T03:27:11.382Z,20.10
2023-02-06T03:29:40.659Z,20.70
2023-02-06T03:32:29.851Z,21.17
2023-02-06T03:35:08.035Z,20.83
2023-02-06T03:37:37.176Z,21.52
2023-02-06T03:40:06.078Z,23.98
2023-02-06T03:42:39.130Z,20.80
2023-02-06T03:45:17.217Z,22.23
2023-02-06T03:47:46.243Z,19.33
2023-02-06T03:50:14.027Z,20.77
2023-02-06T03:52:46.936Z,20.63
2023-02-06T03:55:18.105Z,18.55
2023-02-06T03:57:49.061Z,18.73
2023-02-06T04:00:16.296Z,22.27
2023-02-06T04:02:44.633Z,20.35
2023-02-06T04:05:11.390Z,19.73
2023-02-06T04:07:38.276Z,22.85
2023-02-06T04:10:05.334Z,19.08
2023-02-06T04:12:32.222Z,17.35
2023-02-06T04:14:58.991Z,22.80
2023-02-06T04:17:40.983Z,21.15
2023-02-06T04:20:12.980Z,18.70
2023-02-06T04:22:40.965Z,17.83
2023-02-06T04:25:08.380Z,21.27
2023-02-06T04:27:35.254Z,20.75
2023-02-06T04:30:02.063Z,22.27
2023-02-06T04:32:29.907Z,20.45
2023-02-06T04:34:56.756Z,18.10
2023-02-06T04:37:23.523Z,18.83
2023-02-06T04:39:50.372Z,21.77
2023-02-06T04:42:17.166Z,21.95
2023-02-06T04:44:45.366Z,18.65
2023-02-06T04:47:12.426Z,21.67
2023-02-06T04:49:39.184Z,25.75
2023-02-06T04:52:06.089Z,20.65
2023-02-06T04:54:34.011Z,21.90
2023-02-06T04:57:00.759Z,22.67
2023-02-06T04:59:27.646Z,25.83
2023-02-06T05:01:54.450Z,23.58
2023-02-06T05:04:21.196Z,22.17
2023-02-06T05:06:48.825Z,22.92
2023-02-06T05:09:16.398Z,22.55
2023-02-06T05:11:43.130Z,20.73
2023-02-06T05:14:09.834Z,23.60
2023-02-06T05:16:36.545Z,20.10
2023-02-06T05:19:03.297Z,18.67
2023-02-06T05:21:30.097Z,21.17
2023-02-06T05:23:56.873Z,18.77
2023-02-06T05:26:23.693Z,21.65
2023-02-06T05:28:50.658Z,21.48
2023-02-06T05:31:20.430Z,20.45
2023-02-06T05:33:51.858Z,23.10
2023-02-06T05:36:19.984Z,20.08
2023-02-06T05:38:47.182Z,19.70
2023-02-06T05:41:14.310Z,19.52
2023-02-06T05:43:41.275Z,24.75
2023-02-06T05:46:08.239Z,21.58
2023-02-06T05:48:35.269Z,20.83
2023-02-06T05:51:02.627Z,15.93
2023-02-06T05:53:29.607Z,18.70
2023-02-06T05:55:57.084Z,17.40
2023-02-06T05:58:24.205Z,20.60
2023-02-06T06:00:51.021Z,22.67
2023-02-06T06:03:17.908Z,21.58
2023-02-06T06:05:45.235Z,18.48
2023-02-06T06:08:11.941Z,19.95
2023-02-06T06:10:38.761Z,17.10
2023-02-06T06:13:05.503Z,19.50
2023-02-06T06:15:32.283Z,22.20
2023-02-06T06:17:59.041Z,20.92
2023-02-06T06:20:25.850Z,18.70
2023-02-06T06:22:52.569Z,18.23
2023-02-06T06:25:19.395Z,19.15
2023-02-06T06:27:46.505Z,21.25
2023-02-06T06:30:13.743Z,20.20
2023-02-06T06:32:40.582Z,19.05
2023-02-06T06:35:07.589Z,19.35
2023-02-06T06:37:34.388Z,20.25
2023-02-06T06:40:01.154Z,21.08
2023-02-06T06:42:28.769Z,17.73
2023-02-06T06:44:55.588Z,17.10
2023-02-06T06:47:22.438Z,19.65
2023-02-06T06:49:49.135Z,20.65
2023-02-06T06:52:24.434Z,23.63
2023-02-06T06:54:53.070Z,21.38
2023-02-06T06:57:20.807Z,20.77
2023-02-06T06:59:47.609Z,21.30
2023-02-06T07:02:14.754Z,21.65
2023-02-06T07:04:41.727Z,17.15
2023-02-06T07:07:08.713Z,22.08
2023-02-06T07:09:35.654Z,18.55
2023-02-06T07:12:02.521Z,19.95
2023-02-06T07:14:29.272Z,21.30
2023-02-06T07:16:56.483Z,20.65
2023-02-06T07:19:23.463Z,22.75
2023-02-06T07:21:50.234Z,20.67
2023-02-06T07:24:17.054Z,21.02
2023-02-06T07:26:44.726Z,17.90
2023-02-06T07:29:11.540Z,18.38
2023-02-06T07:31:38.387Z,17.85
2023-02-06T07:34:05.258Z,22.73
2023-02-06T07:36:32.046Z,20.42
2023-02-06T07:38:58.771Z,20.55
2023-02-06T07:41:25.526Z,19.52
2023-02-06T07:43:54.261Z,18.50
2023-02-06T07:46:21.365Z,19.63
2023-02-06T07:48:48.221Z,19.38
2023-02-06T07:51:15.092Z,20.20
2023-02-06T07:53:41.947Z,17.88
2023-02-06T07:56:14.260Z,17.17
2023-02-06T07:58:41.411Z,18.27
2023-02-06T08:01:08.903Z,18.10
2023-02-06T08:03:36.562Z,17.88
2023-02-06T08:06:09.769Z,19.45
2023-02-06T08:08:36.559Z,19.50
2023-02-06T08:11:11.869Z,19.80
2023-02-06T08:13:39.001Z,19.98
2023-02-06T08:16:08.063Z,22.73
2023-02-06T08:18:35.107Z,16.95
2023-02-06T08:21:10.483Z,21.15
2023-02-06T08:23:37.589Z,18.98
2023-02-06T08:26:11.062Z,23.45
2023-02-06T08:31:35.916Z,20.00
2023-02-06T08:34:03.433Z,21.98
2023-02-06T08:36:32.187Z,19.42
2023-02-06T08:39:00.103Z,22.77
2023-02-06T08:41:30.096Z,20.60
2023-02-06T08:43:59.576Z,22.92
2023-02-06T08:46:28.947Z,20.05
2023-02-06T08:48:57.949Z,26.15
2023-02-06T08:51:27.979Z,25.92
2023-02-06T08:54:03.319Z,24.73
2023-02-06T08:56:31.664Z,24.27
2023-02-06T08:58:59.864Z,21.63
2023-02-06T09:01:28.755Z,25.30
2023-02-06T09:03:57.509Z,22.67
2023-02-06T09:06:25.619Z,26.52
2023-02-06T09:08:53.439Z,24.77
2023-02-06T09:11:22.332Z,22.05
2023-02-06T09:13:50.137Z,25.88
2023-02-06T09:16:19.315Z,24.60
2023-02-06T09:18:46.500Z,25.90
2023-02-06T09:21:19.304Z,23.77
2023-02-06T09:23:48.332Z,23.98
2023-02-06T09:26:17.863Z,24.80
2023-02-06T09:28:44.928Z,20.30
2023-02-06T09:31:12.404Z,24.13
2023-02-06T09:33:40.409Z,23.02
2023-02-06T09:36:16.024Z,22.13
2023-02-06T09:38:45.598Z,24.15
2023-02-06T09:41:16.523Z,23.92
2023-02-06T09:43:52.770Z,21.05
2023-02-06T09:46:26.979Z,22.58
2023-02-06T09:48:56.362Z,22.48
2023-02-06T09:51:41.019Z,20.08
2023-02-06T09:54:55.765Z,19.67
2023-02-06T09:57:29.315Z,19.00
2023-02-06T10:00:19.781Z,17.83
2023-02-06T10:03:23.664Z,19.20
2023-02-06T10:06:11.797Z,19.50
2023-02-06T10:08:54.298Z,17.63
2023-02-06T10:11:51.774Z,14.10
2023-02-06T10:14:44.683Z,20.88
2023-02-06T10:17:24.984Z,16.75
2023-02-06T10:20:13.977Z,14.43
2023-02-06T10:22:54.492Z,19.42
2023-02-06T10:25:35.219Z,20.83
2023-02-06T10:28:24.734Z,17.02
2023-02-06T10:31:00.736Z,19.35
2023-02-06T10:33:51.590Z,20.80
2023-02-06T10:36:55.176Z,19.48
2023-02-06T10:39:30.798Z,18.73
2023-02-06T10:42:18.252Z,19.02
2023-02-06T10:44:51.686Z,20.58
2023-02-06T10:47:51.608Z,16.33
2023-02-06T10:50:33.088Z,17.00
2023-02-06T10:53:05.184Z,17.75
2023-02-06T10:55:48.130Z,15.88
2023-02-06T10:58:39.996Z,19.15
2023-02-06T11:01:24.733Z,18.27
2023-02-06T11:04:12.354Z,15.88
2023-02-06T11:06:41.598Z,17.40
2023-02-06T11:09:11.154Z,18.02
2023-02-06T11:11:40.614Z,14.75
2023-02-06T11:14:27.935Z,19.75
2023-02-06T11:16:57.856Z,18.08
2023-02-06T11:19:44.514Z,19.02
2023-02-06T11:22:15.787Z,16.15
2023-02-06T11:25:05.880Z,18.48
2023-02-06T11:27:34.835Z,15.85
2023-02-06T11:30:21.203Z,15.32
2023-02-06T11:33:02.668Z,16.90
2023-02-06T11:35:48.225Z,21.13
2023-02-06T11:38:28.054Z,19.08
2023-02-06T11:41:02.729Z,19.05
2023-02-06T11:43:41.320Z,20.45
2023-02-06T11:46:16.038Z,20.30
2023-02-06T11:48:47.597Z,18.92
2023-02-06T11:51:17.069Z,18.00
2023-02-06T11:54:02.117Z,21.58
2023-02-06T11:56:30.535Z,20.88
2023-02-06T11:59:23.236Z,21.75
2023-02-06T12:01:50.613Z,17.02
2023-02-06T12:04:24.006Z,18.20
2023-02-06T12:07:16.569Z,21.67
2023-02-06T12:09:43.501Z,17.25
2023-02-06T12:12:19.226Z,16.45
2023-02-06T12:14:57.622Z,15.88
2023-02-06T12:17:31.118Z,16.95
2023-02-06T12:20:12.646Z,15.13
2023-02-06T12:22:51.931Z,15.27
2023-02-06T12:25:36.166Z,16.83
2023-02-06T12:28:31.217Z,15.98
2023-02-06T12:31:35.173Z,14.48
2023-02-06T12:34:18.549Z,17.80
2023-02-06T12:37:00.490Z,15.90
2023-02-06T12:39:32.201Z,13.73
2023-02-06T12:42:17.435Z,15.38
2023-02-06T12:44:53.174Z,17.55
2023-02-06T12:47:34.829Z,18.95
2023-02-06T12:50:16.542Z,16.95
2023-02-06T12:52:50.265Z,21.30
2023-02-06T12:55:24.163Z,18.63
2023-02-06T12:57:52.250Z,20.77
2023-02-06T13:00:38.214Z,12.98
2023-02-06T13:03:23.014Z,12.35
2023-02-06T13:06:14.632Z,17.08
2023-02-06T13:09:01.284Z,14.23
2023-02-06T13:11:39.195Z,13.68
2023-02-06T13:14:17.800Z,14.52
2023-02-06T13:16:50.861Z,14.75
2023-02-06T13:19:46.196Z,15.23
2023-02-06T13:22:19.483Z,14.60
2023-02-06T13:24:49.142Z,13.48
2023-02-06T13:27:15.888Z,15.65
2023-02-06T13:29:46.153Z,15.07
2023-02-06T13:32:15.849Z,17.02
2023-02-06T13:34:44.887Z,15.30
2023-02-06T13:37:40.304Z,18.75
2023-02-06T13:40:30.368Z,22.52
2023-02-06T13:43:21.470Z,19.98
2023-02-06T13:45:55.689Z,20.13
2023-02-06T13:48:41.307Z,23.80
2023-02-06T13:51:26.860Z,21.45
2023-02-06T13:54:12.477Z,18.17
2023-02-06T13:56:58.309Z,17.17
2023-02-06T13:59:30.198Z,22.23
2023-02-06T14:02:03.042Z,19.20
2023-02-06T14:04:33.531Z,21.95
2023-02-06T14:07:03.353Z,18.73
2023-02-06T14:09:39.972Z,19.48
2023-02-06T14:12:39.411Z,20.73
2023-02-06T14:15:09.124Z,18.17
2023-02-06T14:17:46.577Z,20.65
2023-02-06T14:20:44.366Z,24.73
2023-02-06T14:23:17.204Z,21.50
2023-02-06T14:26:06.376Z,19.90
2023-02-06T14:28:45.577Z,19.63
2023-02-06T14:31:25.501Z,20.73
2023-02-06T14:34:33.117Z,21.27
2023-02-06T14:37:24.068Z,18.25
2023-02-06T14:40:04.514Z,17.77
2023-02-06T14:42:42.936Z,18.67
2023-02-06T14:45:38.579Z,19.73
2023-02-06T14:48:21.169Z,19.92
2023-02-06T14:50:53.324Z,21.83
2023-02-06T14:53:37.027Z,21.05
2023-02-06T14:56:07.207Z,22.85
2023-02-06T14:58:34.183Z,25.35
2023-02-06T15:01:23.990Z,20.23
2023-02-06T15:03:54.813Z,24.13
2023-02-06T15:06:34.889Z,21.00
2023-02-06T15:09:02.383Z,24.75
2023-02-06T15:11:32.766Z,22.92
2023-02-06T15:14:04.343Z,23.08
2023-02-06T15:16:33.108Z,24.02
2023-02-06T15:19:24.746Z,20.23
2023-02-06T15:22:01.710Z,22.23
2023-02-06T15:24:59.533Z,22.45
2023-02-06T15:27:35.067Z,24.10
2023-02-06T15:30:04.714Z,20.75
2023-02-06T15:32:40.498Z,19.33
2023-02-06T15:35:19.493Z,20.05
2023-02-06T15:37:46.589Z,20.05
2023-02-06T15:40:31.134Z,21.60
2023-02-06T15:42:59.182Z,23.63
2023-02-06T15:45:29.703Z,21.35
2023-02-06T15:47:57.251Z,23.40
2023-02-06T15:50:27.890Z,25.10
2023-02-06T15:52:55.776Z,36.65
2023-02-06T15:55:40.885Z,25.45
2023-02-06T15:58:07.618Z,23.42
2023-02-06T16:00:37.265Z,21.48
2023-02-06T16:03:16.363Z,22.33
2023-02-06T16:05:43.902Z,24.63
2023-02-06T16:08:20.329Z,27.67
2023-02-06T16:11:27.598Z,27.50
2023-02-06T16:13:54.710Z,28.95
2023-02-06T16:16:24.199Z,28.10
2023-02-06T16:18:52.433Z,27.20
2023-02-06T16:21:19.221Z,31.15
2023-02-06T16:23:51.786Z,29.17
2023-02-06T16:26:24.958Z,27.57
2023-02-06T16:29:09.728Z,26.83
2023-02-06T16:31:43.478Z,30.67
2023-02-06T16:34:36.897Z,33.60
2023-02-06T16:37:10.951Z,27.40
2023-02-06T16:39:40.172Z,30.05
2023-02-06T16:42:07.015Z,37.05
2023-02-06T16:44:44.291Z,26.77
2023-02-06T16:47:14.638Z,31.75
2023-02-06T16:49:41.662Z,29.92
2023-02-06T16:52:11.142Z,29.75
2023-02-06T16:54:38.692Z,33.83
2023-02-06T16:57:24.574Z,34.05
2023-02-06T16:59:51.921Z,32.85
2023-02-06T17:02:18.756Z,32.70
2023-02-06T17:04:45.863Z,41.53
2023-02-06T17:07:17.558Z,40.67
2023-02-06T17:09:45.848Z,41.72
2023-02-06T17:12:15.602Z,35.08
2023-02-06T17:14:43.026Z,38.10
2023-02-06T17:17:18.759Z,40.33
2023-02-06T17:19:46.604Z,34.95
2023-02-06T17:22:14.003Z,35.03
2023-02-06T17:24:41.645Z,37.67
2023-02-06T17:27:13.563Z,41.00
2023-02-06T17:29:40.386Z,38.35
2023-02-06T17:32:08.484Z,30.70
2023-02-06T17:34:36.290Z,32.53
2023-02-06T17:37:03.556Z,35.90
2023-02-06T17:39:30.684Z,34.05
2023-02-06T17:41:58.408Z,27.35
2023-02-06T17:44:25.395Z,30.13
2023-02-06T17:46:52.375Z,28.00
2023-02-06T17:49:19.474Z,24.20
2023-02-06T17:51:46.644Z,25.75
2023-02-06T17:54:13.939Z,29.02
2023-02-06T17:56:40.759Z,28.05
2023-02-06T17:59:08.827Z,27.27
2023-02-06T18:01:36.083Z,31.98
2023-02-06T18:04:03.842Z,29.30
2023-02-06T18:06:34.508Z,27.83
2023-02-06T18:09:01.297Z,29.35
2023-02-06T18:11:28.401Z,26.77
2023-02-06T18:13:55.902Z,29.10
2023-02-06T18:16:25.721Z,25.50
2023-02-06T18:18:53.094Z,26.15
2023-02-06T18:21:20.662Z,29.52
2023-02-06T18:23:49.188Z,30.02
2023-02-06T18:26:15.991Z,26.55
2023-02-06T18:28:42.813Z,32.90
2023-02-06T18:31:21.635Z,28.08
2023-02-06T18:33:48.412Z,27.50
2023-02-06T18:36:15.374Z,28.90
2023-02-06T18:38:42.706Z,27.30
2023-02-06T18:41:29.656Z,29.45
2023-02-06T18:43:59.399Z,25.20
2023-02-06T18:46:26.190Z,29.88
2023-02-06T18:48:54.970Z,31.75
2023-02-06T18:51:21.794Z,31.13
2023-02-06T18:53:48.698Z,31.48
2023-02-06T18:56:15.696Z,29.95
2023-02-06T18:58:42.605Z,30.33
2023-02-06T19:01:23.451Z,30.42
2023-02-06T19:03:52.214Z,32.42
2023-02-06T19:06:25.296Z,35.80
2023-02-06T19:08:52.112Z,32.45
2023-02-06T19:11:19.115Z,31.83
2023-02-06T19:13:46.099Z,30.55
2023-02-06T19:16:18.865Z,32.50
2023-02-06T19:18:48.067Z,37.08
2023-02-06T19:21:18.013Z,35.50
2023-02-06T19:23:47.333Z,36.88
2023-02-06T19:26:16.831Z,33.95
2023-02-06T19:28:44.771Z,33.28
2023-02-06T19:31:13.749Z,36.38
2023-02-06T19:33:41.813Z,35.03
2023-02-06T19:36:14.326Z,34.03
2023-02-06T19:38:42.035Z,36.63
2023-02-06T19:41:14.523Z,39.45
2023-02-06T19:43:43.526Z,35.95
2023-02-06T19:46:13.476Z,32.13
2023-02-06T19:48:46.732Z,35.22
2023-02-06T19:53:48.061Z,35.38
2023-02-06T19:58:45.821Z,38.30
2023-02-06T20:01:15.092Z,34.17
2023-02-06T20:03:42.905Z,31.05
2023-02-06T20:06:12.975Z,31.90
2023-02-06T20:08:42.921Z,36.20
2023-02-06T20:11:15.914Z,35.05
2023-02-06T20:13:43.855Z,36.45
2023-02-06T20:16:24.740Z,33.75
2023-02-06T20:18:52.247Z,33.53
2023-02-06T20:21:29.529Z,37.58
2023-02-06T20:23:59.221Z,33.67
2023-02-06T20:26:31.850Z,35.38
2023-02-06T20:28:59.523Z,31.85
2023-02-06T20:31:27.716Z,34.97
2023-02-06T20:33:55.898Z,40.85
2023-02-06T20:36:26.823Z,35.78
2023-02-06T20:38:58.811Z,40.13
2023-02-06T20:41:28.741Z,38.20
2023-02-06T20:43:58.232Z,37.42
2023-02-06T20:46:27.367Z,35.08
2023-02-06T20:49:02.735Z,42.15
2023-02-06T20:51:30.035Z,36.75
2023-02-06T20:53:57.107Z,35.10
2023-02-06T20:56:27.347Z,37.92
2023-02-06T20:58:54.622Z,35.55
2023-02-06T21:01:24.421Z,36.72
2023-02-06T21:03:54.577Z,35.22
2023-02-06T21:06:21.510Z,37.65
2023-02-06T21:08:50.354Z,42.80
2023-02-06T21:11:17.830Z,34.03
2023-02-06T21:13:44.644Z,36.60
2023-02-06T21:16:13.574Z,37.15
2023-02-06T21:18:42.614Z,35.50
2023-02-06T21:21:12.981Z,39.55
2023-02-06T21:23:42.401Z,41.70
2023-02-06T21:26:10.778Z,42.50
2023-02-06T21:28:38.241Z,42.15
2023-02-06T21:31:13.302Z,44.13
2023-02-06T21:33:40.162Z,41.63
2023-02-06T21:36:08.221Z,41.47
2023-02-06T21:38:36.353Z,38.25
2023-02-06T21:41:07.914Z,39.03
2023-02-06T21:43:35.047Z,41.50
2023-02-06T21:46:02.242Z,42.58
2023-02-06T21:48:29.376Z,45.00
2023-02-06T21:50:57.613Z,48.88
2023-02-06T21:53:25.585Z,44.13
2023-02-06T21:55:52.460Z,41.30
2023-02-06T21:58:19.798Z,42.95
2023-02-06T22:00:47.643Z,36.00
2023-02-06T22:03:14.942Z,41.80
2023-02-06T22:05:41.907Z,44.67
2023-02-06T22:08:08.675Z,44.03
2023-02-06T22:10:37.424Z,36.72
2023-02-06T22:13:06.071Z,38.85
2023-02-06T22:15:33.703Z,40.75
2023-02-06T22:18:00.876Z,38.60
2023-02-06T22:20:28.069Z,41.05
2023-02-06T22:22:55.283Z,36.83
2023-02-06T22:25:22.514Z,37.55
2023-02-06T22:27:49.429Z,38.33
2023-02-06T22:30:16.420Z,38.30
2023-02-06T22:32:43.182Z,36.95
2023-02-06T22:35:10.014Z,39.97
2023-02-06T22:37:36.832Z,37.15
2023-02-06T22:40:03.712Z,33.88
2023-02-06T22:42:30.621Z,37.53
2023-02-06T22:44:57.465Z,38.83
2023-02-06T22:47:24.227Z,38.35
2023-02-06T22:49:52.721Z,43.25
2023-02-06T22:52:38.301Z,40.42
2023-02-06T22:55:05.896Z,40.10
2023-02-06T22:57:35.322Z,43.42
2023-02-06T23:00:02.104Z,36.97
2023-02-06T23:02:50.732Z,42.10
2023-02-06T23:05:17.546Z,42.92
2023-02-06T23:07:44.712Z,44.05
2023-02-06T23:10:11.660Z,49.17
2023-02-06T23:12:39.339Z,47.72
2023-02-06T23:15:06.389Z,43.55
2023-02-06T23:17:33.511Z,41.13
2023-02-06T23:20:00.353Z,37.63
2023-02-06T23:22:28.377Z,38.88
2023-02-06T23:24:55.254Z,35.58
2023-02-06T23:27:22.213Z,39.17
2023-02-06T23:29:48.985Z,39.15
2023-02-06T23:32:15.809Z,32.75
2023-02-06T23:34:42.631Z,35.38
2023-02-06T23:37:09.430Z,36.05
2023-02-06T23:39:36.213Z,39.47
2023-02-06T23:42:03.049Z,35.38
2023-02-06T23:44:29.879Z,35.65
2023-02-06T23:46:57.203Z,35.92
2023-02-06T23:49:23.957Z,34.20
2023-02-06T23:51:51.115Z,39.13
2023-02-06T23:54:17.910Z,38.63
2023-02-06T23:56:44.797Z,38.75
2023-02-06T23:59:13.107Z,39.65
